createdAt,value
2022-10-19T00:02:22.780Z,87.10
2022-10-19T00:04:49.418Z,87.18
2022-10-19T00:07:16.098Z,86.97
2022-10-19T00:09:44.510Z,86.73
2022-10-19T00:12:12.948Z,86.73
2022-10-19T00:14:39.697Z,87.01
2022-10-19T00:17:06.236Z,86.69
2022-10-19T00:19:32.837Z,86.89
2022-10-19T00:21:59.391Z,87.36
2022-10-19T00:24:26.002Z,86.78
2022-10-19T00:26:52.699Z,86.98
2022-10-19T00:29:19.330Z,86.85
2022-10-19T00:31:46.022Z,86.52
2022-10-19T00:34:12.677Z,86.59
2022-10-19T00:36:40.781Z,86.51
2022-10-19T00:39:11.339Z,85.75
2022-10-19T00:41:38.780Z,86.05
2022-10-19T00:44:27.133Z,86.37
2022-10-19T00:46:53.974Z,85.10
2022-10-19T00:49:24.458Z,85.70
2022-10-19T00:51:55.582Z,86.18
2022-10-19T00:54:23.869Z,85.75
2022-10-19T00:56:53.329Z,85.09
2022-10-19T00:59:22.220Z,84.84
2022-10-19T01:01:49.392Z,84.90
2022-10-19T01:04:16.361Z,85.11
2022-10-19T01:06:43.071Z,84.88
2022-10-19T01:09:09.737Z,84.79
2022-10-19T01:11:48.426Z,84.82
2022-10-19T01:14:30.170Z,84.74
2022-10-19T01:17:03.978Z,84.39
2022-10-19T01:19:52.256Z,84.06
2022-10-19T01:23:00.437Z,83.28
2022-10-19T01:25:36.003Z,83.57
2022-10-19T01:28:31.832Z,83.64
2022-10-19T01:31:23.156Z,83.12
2022-10-19T01:34:13.051Z,83.46
2022-10-19T01:37:00.857Z,82.80
2022-10-19T01:39:44.236Z,82.08
2022-10-19T01:42:26.369Z,82.39
2022-10-19T01:45:05.088Z,81.09
2022-10-19T01:47:38.617Z,81.72
2022-10-19T01:50:27.673Z,81.80
2022-10-19T01:52:56.573Z,81.82
2022-10-19T01:55:25.930Z,82.08
2022-10-19T01:57:58.527Z,81.84
2022-10-19T02:00:26.725Z,82.49
2022-10-19T02:02:54.858Z,82.70
2022-10-19T02:05:27.223Z,83.16
2022-10-19T02:07:59.681Z,83.08
2022-10-19T02:10:28.385Z,82.08
2022-10-19T02:12:56.118Z,82.40
2022-10-19T02:15:27.066Z,82.60
2022-10-19T02:17:57.375Z,83.40
2022-10-19T02:20:24.404Z,83.40
2022-10-19T02:22:51.086Z,83.67
2022-10-19T02:25:18.004Z,84.05
2022-10-19T02:27:44.993Z,83.40
2022-10-19T02:30:14.484Z,82.73
2022-10-19T02:32:42.304Z,82.61
2022-10-19T02:35:10.390Z,81.74
2022-10-19T02:37:37.166Z,82.30
2022-10-19T02:40:04.972Z,81.10
2022-10-19T02:42:40.622Z,81.44
2022-10-19T02:45:29.014Z,81.62
2022-10-19T02:48:01.067Z,81.61
2022-10-19T02:50:27.930Z,81.86
2022-10-19T02:52:54.473Z,81.42
2022-10-19T02:55:21.107Z,80.38
2022-10-19T02:57:47.648Z,80.45
2022-10-19T03:00:14.695Z,80.00
2022-10-19T03:02:42.705Z,79.99
2022-10-19T03:05:09.758Z,79.82
2022-10-19T03:07:36.868Z,79.92
2022-10-19T03:10:03.817Z,79.48
2022-10-19T03:12:30.392Z,80.07
2022-10-19T03:14:56.973Z,80.43
2022-10-19T03:17:23.671Z,80.38
2022-10-19T03:19:50.299Z,80.56
2022-10-19T03:22:16.896Z,80.33
2022-10-19T03:24:43.566Z,80.21
2022-10-19T03:27:10.181Z,80.54
2022-10-19T03:29:36.824Z,80.64
2022-10-19T03:32:03.725Z,81.03
2022-10-19T03:34:30.383Z,81.49
2022-10-19T03:36:59.138Z,81.34
2022-10-19T03:39:26.123Z,81.68
2022-10-19T03:41:52.867Z,81.90
2022-10-19T03:44:19.434Z,81.87
2022-10-19T03:46:46.006Z,81.85
2022-10-19T03:49:12.596Z,81.36
2022-10-19T03:51:39.189Z,81.42
2022-10-19T03:54:08.250Z,81.92
2022-10-19T03:56:36.093Z,81.99
2022-10-19T03:59:05.146Z,82.37
2022-10-19T04:01:40.301Z,82.59
2022-10-19T04:04:11.435Z,82.39
2022-10-19T04:06:41.426Z,82.91
2022-10-19T04:09:11.110Z,82.97
2022-10-19T04:11:38.245Z,82.89
2022-10-19T04:14:05.455Z,82.78
2022-10-19T04:16:32.648Z,83.03
2022-10-19T04:18:59.546Z,83.26
2022-10-19T04:21:31.813Z,83.12
2022-10-19T04:24:03.112Z,83.41
2022-10-19T04:26:30.401Z,83.19
2022-10-19T04:28:58.636Z,83.31
2022-10-19T04:31:26.007Z,83.36
2022-10-19T04:33:52.719Z,83.35
2022-10-19T04:36:19.672Z,83.72
2022-10-19T04:38:46.574Z,83.74
2022-10-19T04:41:17.465Z,83.91
2022-10-19T04:43:47.348Z,84.64
2022-10-19T04:46:17.153Z,84.68
2022-10-19T04:48:44.393Z,84.72
2022-10-19T04:51:11.684Z,85.07
2022-10-19T04:53:39.735Z,84.60
2022-10-19T04:56:09.278Z,84.67
2022-10-19T04:58:35.955Z,85.47
2022-10-19T05:01:15.147Z,85.19
2022-10-19T05:03:41.839Z,85.03
2022-10-19T05:06:09.550Z,85.49
2022-10-19T05:08:36.976Z,85.18
2022-10-19T05:11:05.898Z,85.58
2022-10-19T05:13:33.287Z,86.00
2022-10-19T05:16:01.657Z,85.75
2022-10-19T05:18:28.883Z,86.13
2022-10-19T05:21:21.968Z,85.55
2022-10-19T05:23:52.371Z,85.72
2022-10-19T05:26:21.118Z,85.82
2022-10-19T05:28:56.665Z,85.58
2022-10-19T05:31:29.252Z,85.86
2022-10-19T05:33:56.395Z,85.68
2022-10-19T05:36:28.764Z,85.61
2022-10-19T05:38:57.522Z,85.42
2022-10-19T05:41:25.530Z,85.39
2022-10-19T05:43:59.527Z,85.13
2022-10-19T05:46:28.396Z,84.77
2022-10-19T05:48:56.791Z,84.63
2022-10-19T05:51:24.825Z,84.73
2022-10-19T05:53:52.896Z,84.17
2022-10-19T05:56:25.805Z,84.46
2022-10-19T05:58:52.525Z,84.10
2022-10-19T06:01:20.094Z,84.35
2022-10-19T06:03:50.891Z,83.96
2022-10-19T06:06:17.910Z,83.99
2022-10-19T06:08:45.133Z,84.01
2022-10-19T06:11:14.488Z,84.09
2022-10-19T06:13:42.852Z,83.72
2022-10-19T06:16:10.748Z,83.48
2022-10-19T06:18:38.259Z,83.36
2022-10-19T06:21:07.178Z,83.41
2022-10-19T06:23:35.374Z,83.56
2022-10-19T06:26:04.309Z,83.56
2022-10-19T06:28:30.970Z,83.27
2022-10-19T06:30:58.692Z,83.29
2022-10-19T06:33:26.064Z,82.79
2022-10-19T06:35:52.848Z,82.68
2022-10-19T06:38:19.649Z,82.83
2022-10-19T06:40:46.404Z,82.52
2022-10-19T06:43:13.008Z,83.10
2022-10-19T06:45:39.746Z,82.76
2022-10-19T06:48:07.764Z,82.47
2022-10-19T06:50:35.317Z,82.22
2022-10-19T06:53:05.090Z,82.11
2022-10-19T06:55:31.671Z,82.17
2022-10-19T06:58:01.646Z,82.47
2022-10-19T07:00:29.480Z,82.76
2022-10-19T07:02:58.006Z,83.05
2022-10-19T07:05:24.694Z,83.20
2022-10-19T07:07:51.329Z,82.68
2022-10-19T07:10:18.070Z,84.35
2022-10-19T07:12:44.661Z,85.32
2022-10-19T07:15:11.196Z,86.03
2022-10-19T07:17:37.829Z,86.48
2022-10-19T07:20:04.818Z,86.93
2022-10-19T07:22:31.426Z,86.98
2022-10-19T07:24:58.368Z,86.63
2022-10-19T07:27:25.171Z,85.24
2022-10-19T07:29:51.727Z,85.47
2022-10-19T07:32:18.238Z,84.83
2022-10-19T07:34:44.850Z,84.49
2022-10-19T07:37:11.409Z,84.55
2022-10-19T07:39:38.052Z,84.10
2022-10-19T07:42:04.960Z,84.39
2022-10-19T07:44:31.627Z,83.92
2022-10-19T07:46:58.527Z,83.67
2022-10-19T07:49:25.243Z,83.80
2022-10-19T07:51:54.136Z,83.39
2022-10-19T07:54:21.475Z,82.61
2022-10-19T07:56:48.127Z,82.14
2022-10-19T07:59:16.912Z,82.04
2022-10-19T08:01:44.933Z,81.88
2022-10-19T08:04:59.085Z,80.90
2022-10-19T08:06:58.142Z,80.20
2022-10-19T08:12:15.199Z,78.91
2022-10-19T08:14:42.295Z,78.83
2022-10-19T08:17:11.647Z,78.35
2022-10-19T08:19:43.206Z,78.14
2022-10-19T08:22:10.525Z,77.62
2022-10-19T08:24:37.064Z,77.62
2022-10-19T08:27:03.929Z,77.10
2022-10-19T08:29:31.621Z,77.41
2022-10-19T08:31:59.034Z,77.59
2022-10-19T08:34:25.736Z,77.22
2022-10-19T08:36:52.354Z,77.07
2022-10-19T08:39:18.978Z,77.08
2022-10-19T08:42:06.774Z,77.67
2022-10-19T08:45:14.150Z,77.86
2022-10-19T08:48:18.188Z,77.53
2022-10-19T08:50:46.326Z,77.01
2022-10-19T08:53:22.449Z,77.52
2022-10-19T08:55:53.378Z,76.39
2022-10-19T08:58:31.040Z,76.59
2022-10-19T09:01:11.069Z,75.95
2022-10-19T09:03:56.743Z,76.22
2022-10-19T09:06:31.990Z,75.33
2022-10-19T09:08:59.566Z,75.39
2022-10-19T09:11:31.584Z,75.12
2022-10-19T09:14:18.440Z,74.60
2022-10-19T09:16:46.248Z,73.34
2022-10-19T09:19:22.005Z,74.12
2022-10-19T09:21:54.022Z,72.34
2022-10-19T09:24:32.758Z,71.62
2022-10-19T09:27:01.034Z,71.17
2022-10-19T09:29:39.047Z,70.97
2022-10-19T09:32:14.390Z,71.10
2022-10-19T09:34:46.311Z,69.95
2022-10-19T09:37:21.231Z,70.04
2022-10-19T09:40:16.860Z,69.95
2022-10-19T09:42:43.429Z,69.47
2022-10-19T09:45:34.245Z,69.21
2022-10-19T09:48:07.176Z,69.05
2022-10-19T09:50:43.584Z,69.27
2022-10-19T09:53:19.565Z,68.77
2022-10-19T09:55:53.501Z,65.70
2022-10-19T09:58:20.940Z,66.94
2022-10-19T10:00:55.894Z,66.01
2022-10-19T10:03:32.778Z,65.13
2022-10-19T10:06:04.653Z,66.17
2022-10-19T10:08:35.634Z,66.06
2022-10-19T10:11:07.127Z,65.46
2022-10-19T10:13:40.473Z,63.46
2022-10-19T10:16:10.398Z,63.48
2022-10-19T10:18:50.917Z,62.71
2022-10-19T10:21:26.250Z,61.30
2022-10-19T10:24:20.361Z,60.45
2022-10-19T10:26:51.801Z,59.16
2022-10-19T10:29:24.273Z,59.37
2022-10-19T10:32:15.510Z,59.24
2022-10-19T10:34:53.989Z,58.64
2022-10-19T10:37:29.931Z,58.46
2022-10-19T10:40:01.757Z,58.72
2022-10-19T10:42:43.143Z,58.37
2022-10-19T10:45:23.912Z,59.05
2022-10-19T10:47:52.005Z,59.90
2022-10-19T10:50:22.889Z,58.01
2022-10-19T10:52:58.707Z,59.06
2022-10-19T10:55:26.602Z,58.04
2022-10-19T10:58:05.027Z,57.60
2022-10-19T11:00:34.473Z,57.76
2022-10-19T11:03:19.710Z,57.39
2022-10-19T11:05:49.780Z,57.13
2022-10-19T11:08:25.354Z,57.87
2022-10-19T11:10:57.609Z,55.79
2022-10-19T11:13:30.948Z,56.04
2022-10-19T11:16:22.835Z,55.88
2022-10-19T11:18:56.444Z,56.31
2022-10-19T11:21:47.780Z,55.40
2022-10-19T11:24:35.396Z,55.57
2022-10-19T11:27:20.789Z,53.75
2022-10-19T11:30:29.174Z,53.15
2022-10-19T11:33:14.461Z,52.68
2022-10-19T11:36:33.288Z,53.51
2022-10-19T11:39:02.873Z,53.98
2022-10-19T11:41:39.217Z,53.11
2022-10-19T11:44:38.269Z,50.62
2022-10-19T11:47:43.799Z,50.84
2022-10-19T11:50:33.396Z,51.38
2022-10-19T11:53:15.945Z,50.21
2022-10-19T11:55:54.574Z,51.00
2022-10-19T11:58:49.171Z,50.72
2022-10-19T12:01:46.388Z,48.72
2022-10-19T12:04:12.986Z,48.27
2022-10-19T12:06:54.835Z,47.97
2022-10-19T12:09:48.862Z,48.22
2022-10-19T12:12:27.727Z,48.86
2022-10-19T12:15:03.535Z,46.82
2022-10-19T12:17:36.895Z,46.02
2022-10-19T12:20:19.024Z,45.59
2022-10-19T12:22:49.089Z,44.34
2022-10-19T12:25:17.558Z,42.12
2022-10-19T12:27:47.622Z,39.11
2022-10-19T12:30:20.674Z,39.41
2022-10-19T12:32:54.254Z,38.62
2022-10-19T12:35:21.271Z,36.57
2022-10-19T12:38:19.456Z,36.06
2022-10-19T12:41:12.445Z,36.15
2022-10-19T12:43:53.973Z,35.44
2022-10-19T12:46:42.945Z,33.81
2022-10-19T12:49:43.991Z,33.04
2022-10-19T12:52:12.086Z,31.11
2022-10-19T12:54:40.514Z,32.07
2022-10-19T12:57:25.948Z,32.72
2022-10-19T13:00:01.707Z,32.99
2022-10-19T13:02:35.704Z,30.96
2022-10-19T13:05:03.246Z,31.60
2022-10-19T13:07:33.210Z,31.95
2022-10-19T13:10:04.117Z,32.86
2022-10-19T13:12:43.637Z,34.11
2022-10-19T13:15:35.810Z,34.25
2022-10-19T13:18:04.189Z,35.96
2022-10-19T13:20:30.716Z,35.41
2022-10-19T13:23:00.226Z,34.28
2022-10-19T13:25:40.221Z,36.58
2022-10-19T13:28:06.813Z,34.30
2022-10-19T13:31:03.266Z,34.37
2022-10-19T13:33:44.495Z,35.90
2022-10-19T13:36:12.039Z,36.55
2022-10-19T13:38:43.336Z,35.36
2022-10-19T13:41:15.770Z,35.92
2022-10-19T13:44:18.273Z,35.27
2022-10-19T13:47:00.035Z,37.53
2022-10-19T13:50:15.182Z,34.17
2022-10-19T13:52:41.702Z,33.17
2022-10-19T13:55:37.478Z,33.72
2022-10-19T13:58:34.624Z,33.69
2022-10-19T14:01:38.319Z,34.84
2022-10-19T14:04:20.420Z,35.52
2022-10-19T14:07:04.554Z,35.77
2022-10-19T14:09:52.914Z,36.29
2022-10-19T14:12:27.172Z,37.93
2022-10-19T14:14:53.980Z,38.29
2022-10-19T14:17:28.045Z,38.78
2022-10-19T14:19:57.821Z,39.15
2022-10-19T14:22:36.262Z,39.77
2022-10-19T14:25:05.449Z,40.98
2022-10-19T14:27:33.399Z,41.59
2022-10-19T14:30:00.582Z,42.26
2022-10-19T14:32:29.477Z,42.14
2022-10-19T14:37:31.495Z,41.61
2022-10-19T14:40:07.617Z,41.44
2022-10-19T14:42:52.681Z,42.74
2022-10-19T14:45:26.233Z,43.67
2022-10-19T14:48:04.742Z,43.92
2022-10-19T14:50:40.292Z,43.70
2022-10-19T14:53:47.141Z,44.88
2022-10-19T14:56:38.433Z,44.73
2022-10-19T14:59:19.225Z,45.09
2022-10-19T15:01:55.537Z,45.27
2022-10-19T15:04:28.494Z,45.38
2022-10-19T15:06:57.891Z,46.42
2022-10-19T15:09:37.486Z,47.00
2022-10-19T15:12:20.342Z,46.85
2022-10-19T15:14:49.014Z,47.01
2022-10-19T15:17:30.208Z,47.53
2022-10-19T15:20:04.779Z,48.56
2022-10-19T15:22:32.066Z,48.77
2022-10-19T15:25:08.348Z,49.38
2022-10-19T15:27:37.318Z,49.96
2022-10-19T15:30:27.232Z,50.59
2022-10-19T15:33:02.997Z,51.38
2022-10-19T15:35:32.793Z,51.91
2022-10-19T15:38:02.867Z,52.87
2022-10-19T15:40:40.883Z,53.21
2022-10-19T15:43:35.046Z,53.76
2022-10-19T15:46:13.427Z,54.51
2022-10-19T15:48:51.204Z,54.76
2022-10-19T15:51:23.426Z,56.07
2022-10-19T15:53:55.686Z,56.19
2022-10-19T15:56:24.397Z,56.16
2022-10-19T15:58:52.982Z,56.24
2022-10-19T16:01:22.576Z,56.10
2022-10-19T16:03:49.675Z,56.26
2022-10-19T16:06:17.630Z,57.02
2022-10-19T16:08:47.591Z,56.91
2022-10-19T16:11:16.067Z,57.82
2022-10-19T16:13:45.996Z,58.38
2022-10-19T16:16:23.308Z,58.49
2022-10-19T16:18:50.609Z,59.07
2022-10-19T16:21:19.177Z,59.90
2022-10-19T16:23:46.230Z,59.96
2022-10-19T16:26:16.998Z,60.10
2022-10-19T16:28:44.534Z,60.64
2022-10-19T16:31:12.259Z,61.41
2022-10-19T16:33:44.032Z,61.52
2022-10-19T16:36:11.505Z,61.73
2022-10-19T16:38:38.670Z,62.11
2022-10-19T16:41:10.795Z,62.32
2022-10-19T16:43:46.335Z,62.87
2022-10-19T16:46:15.840Z,62.36
2022-10-19T16:48:42.589Z,62.51
2022-10-19T16:51:31.649Z,62.74
2022-10-19T16:53:58.978Z,62.53
2022-10-19T16:56:29.670Z,62.62
2022-10-19T16:58:59.994Z,63.18
2022-10-19T17:01:27.410Z,63.22
2022-10-19T17:03:54.938Z,63.75
2022-10-19T17:06:22.335Z,63.64
2022-10-19T17:11:38.755Z,64.11
2022-10-19T17:14:08.662Z,64.03
2022-10-19T17:16:36.786Z,64.59
2022-10-19T17:19:11.129Z,64.38
2022-10-19T17:21:39.010Z,64.29
2022-10-19T17:24:08.212Z,64.28
2022-10-19T17:26:38.645Z,64.38
2022-10-19T17:29:16.075Z,64.26
2022-10-19T17:31:43.532Z,64.60
2022-10-19T17:34:10.587Z,64.83
2022-10-19T17:39:10.886Z,64.98
2022-10-19T17:41:37.988Z,64.88
2022-10-19T17:44:05.385Z,64.83
2022-10-19T17:46:35.696Z,64.68
2022-10-19T17:49:03.021Z,65.07
2022-10-19T17:51:31.271Z,64.87
2022-10-19T17:54:00.330Z,64.71
2022-10-19T17:56:27.957Z,64.72
2022-10-19T17:58:55.864Z,64.69
2022-10-19T18:01:22.927Z,64.85
2022-10-19T18:03:50.374Z,64.77
2022-10-19T18:06:25.791Z,65.41
2022-10-19T18:08:54.404Z,65.05
2022-10-19T18:11:25.109Z,65.09
2022-10-19T18:13:54.782Z,65.40
2022-10-19T18:16:33.875Z,65.60
2022-10-19T18:19:02.228Z,65.32
2022-10-19T18:21:34.322Z,65.27
2022-10-19T18:24:02.424Z,65.90
2022-10-19T18:26:32.411Z,65.45
2022-10-19T18:29:00.926Z,65.48
2022-10-19T18:31:30.598Z,65.45
2022-10-19T18:33:59.848Z,65.22
2022-10-19T18:36:26.781Z,65.04
2022-10-19T18:38:55.429Z,64.70
2022-10-19T18:41:22.746Z,65.37
2022-10-19T18:44:05.050Z,65.47
2022-10-19T18:46:34.379Z,65.83
2022-10-19T18:49:01.791Z,65.57
2022-10-19T18:51:29.101Z,65.04
2022-10-19T18:53:55.668Z,65.92
2022-10-19T18:56:23.017Z,65.83
2022-10-19T18:58:50.308Z,65.78
2022-10-19T19:01:27.057Z,66.16
2022-10-19T19:03:57.334Z,66.26
2022-10-19T19:06:28.901Z,66.32
2022-10-19T19:08:57.409Z,66.35
2022-10-19T19:11:26.615Z,67.11
2022-10-19T19:13:59.555Z,68.10
2022-10-19T19:16:28.037Z,67.97
2022-10-19T19:18:55.281Z,67.22
2022-10-19T19:21:28.014Z,66.54
2022-10-19T19:23:57.397Z,66.71
2022-10-19T19:26:26.335Z,66.42
2022-10-19T19:28:53.006Z,67.00
2022-10-19T19:31:20.022Z,66.46
2022-10-19T19:33:47.187Z,66.55
2022-10-19T19:36:15.870Z,66.60
2022-10-19T19:38:43.072Z,66.54
2022-10-19T19:41:13.226Z,66.36
2022-10-19T19:43:40.829Z,66.41
2022-10-19T19:46:12.463Z,66.64
2022-10-19T19:48:41.328Z,66.54
2022-10-19T19:51:13.973Z,66.19
2022-10-19T19:53:40.611Z,66.32
2022-10-19T19:56:08.985Z,66.04
2022-10-19T19:58:36.083Z,65.60
2022-10-19T20:01:13.656Z,65.58
2022-10-19T20:03:41.050Z,65.86
2022-10-19T20:06:08.024Z,65.70
2022-10-19T20:08:36.232Z,65.30
2022-10-19T20:11:05.350Z,65.06
2022-10-19T20:13:32.417Z,64.88
2022-10-19T20:16:02.378Z,65.17
2022-10-19T20:18:29.594Z,65.32
2022-10-19T20:21:01.064Z,65.31
2022-10-19T20:23:28.170Z,65.08
2022-10-19T20:25:56.298Z,65.35
2022-10-19T20:28:24.933Z,65.63
2022-10-19T20:31:05.190Z,65.57
2022-10-19T20:33:34.263Z,65.72
2022-10-19T20:36:12.696Z,66.07
2022-10-19T20:38:40.586Z,66.21
2022-10-19T20:41:09.092Z,66.39
2022-10-19T20:43:37.105Z,66.87
2022-10-19T20:46:04.817Z,67.51
2022-10-19T20:48:31.681Z,67.73
2022-10-19T20:51:15.007Z,67.75
2022-10-19T20:53:47.328Z,68.04
2022-10-19T20:56:16.928Z,68.07
2022-10-19T20:58:44.907Z,68.18
2022-10-19T21:01:17.517Z,67.99
2022-10-19T21:03:48.936Z,68.42
2022-10-19T21:06:15.688Z,68.23
2022-10-19T21:08:42.696Z,68.23
2022-10-19T21:11:22.287Z,68.20
2022-10-19T21:13:52.315Z,68.08
2022-10-19T21:16:21.648Z,68.49
2022-10-19T21:18:49.622Z,68.37
2022-10-19T21:21:28.059Z,68.59
2022-10-19T21:23:57.982Z,69.30
2022-10-19T21:26:26.139Z,69.29
2022-10-19T21:28:53.282Z,69.41
2022-10-19T21:31:21.686Z,69.67
2022-10-19T21:33:48.800Z,69.83
2022-10-19T21:36:15.958Z,69.79
2022-10-19T21:38:42.891Z,69.80
2022-10-19T21:41:15.163Z,69.76
2022-10-19T21:43:42.314Z,70.27
2022-10-19T21:46:13.759Z,70.04
2022-10-19T21:48:40.916Z,70.37
2022-10-19T21:51:16.562Z,70.30
2022-10-19T21:53:43.777Z,70.36
2022-10-19T21:56:10.319Z,70.18
2022-10-19T21:58:36.908Z,70.17
2022-10-19T22:01:06.924Z,70.29
2022-10-19T22:03:33.946Z,70.31
2022-10-19T22:06:00.790Z,70.27
2022-10-19T22:08:27.482Z,70.30
2022-10-19T22:10:54.194Z,70.36
2022-10-19T22:13:20.732Z,70.45
2022-10-19T22:15:47.254Z,70.46
2022-10-19T22:18:13.773Z,70.28
2022-10-19T22:20:40.654Z,70.28
2022-10-19T22:23:08.112Z,70.62
2022-10-19T22:25:35.434Z,70.24
2022-10-19T22:28:01.980Z,70.47
2022-10-19T22:30:28.593Z,70.89
2022-10-19T22:32:55.897Z,71.08
2022-10-19T22:35:22.461Z,71.06
2022-10-19T22:37:49.041Z,71.09
2022-10-19T22:40:15.628Z,71.13
2022-10-19T22:42:42.178Z,70.78
2022-10-19T22:45:08.940Z,71.59
2022-10-19T22:47:35.585Z,70.93
2022-10-19T22:50:02.117Z,70.72
2022-10-19T22:52:28.655Z,70.78
2022-10-19T22:54:55.311Z,71.16
2022-10-19T22:57:21.947Z,71.47
2022-10-19T22:59:48.438Z,71.29
2022-10-19T23:02:15.005Z,71.08
2022-10-19T23:04:41.670Z,71.00
2022-10-19T23:07:08.255Z,70.51
2022-10-19T23:09:34.920Z,70.84
2022-10-19T23:12:01.390Z,70.65
2022-10-19T23:14:27.934Z,70.39
2022-10-19T23:16:54.455Z,70.72
2022-10-19T23:19:21.054Z,70.99
2022-10-19T23:21:47.633Z,70.02
2022-10-19T23:24:14.175Z,69.85
2022-10-19T23:26:40.809Z,70.75
2022-10-19T23:29:07.395Z,70.74
2022-10-19T23:31:33.988Z,70.60
2022-10-19T23:34:00.648Z,70.17
2022-10-19T23:36:29.077Z,71.17
2022-10-19T23:38:57.833Z,71.28
2022-10-19T23:41:24.644Z,71.17
2022-10-19T23:43:51.652Z,70.07
2022-10-19T23:46:18.876Z,70.04
2022-10-19T23:48:45.666Z,70.18
2022-10-19T23:51:15.270Z,70.04
2022-10-19T23:53:44.549Z,69.99
2022-10-19T23:56:17.059Z,70.10
2022-10-19T23:58:43.842Z,69.81
